Time;durP1;ratioP1;P1;durP2;ratioP2;P2;SDS_P1;SDS_P2;PMS_P1;PMS_P2;Temp;Humidity;BMP_temperature;BMP_pressure;BME280_temperature;BME280_humidity;BME280_pressure;Samples;Min_cycle;Max_cycle;Signal;HPM_P1;HPM_P2
2021/01/01 00:02:18;;;;;;;68.70;32.83;;;;;;;7.89;71.16;99408.50;6194667;23;20004;-70
2021/01/01 00:04:44;;;;;;;82.40;35.50;;;;;;;7.81;70.33;99413.72;6194283;23;20056;-70
2021/01/01 00:07:09;;;;;;;101.85;41.42;;;;;;;7.70;68.22;99417.41;6194482;23;20306;-68
2021/01/01 00:09:34;;;;;;;69.47;30.50;;;;;;;7.41;70.56;99427.34;6194826;23;20048;-67
2021/01/01 00:12:00;;;;;;;101.75;42.67;;;;;;;7.34;71.56;99430.59;6193061;23;20009;-67
2021/01/01 00:14:26;;;;;;;94.93;41.00;;;;;;;7.11;72.35;99431.94;6194807;23;20012;-67
2021/01/01 00:16:51;;;;;;;94.68;41.53;;;;;;;7.10;73.05;99424.19;6194544;23;20001;-67
2021/01/01 00:19:16;;;;;;;85.88;38.35;;;;;;;6.97;73.69;99424.56;6194766;23;20049;-68
2021/01/01 00:21:42;;;;;;;89.00;39.20;;;;;;;7.15;73.02;99429.84;6194417;23;20077;-69
2021/01/01 00:24:08;;;;;;;91.55;37.88;;;;;;;7.24;71.68;99431.59;6194894;23;20001;-69
2021/01/01 00:26:34;;;;;;;84.10;39.10;;;;;;;7.40;70.90;99433.59;6194497;23;20001;-69
2021/01/01 00:28:59;;;;;;;93.05;39.20;;;;;;;7.33;70.72;99438.63;6194680;23;20001;-69
2021/01/01 00:31:26;;;;;;;85.82;39.58;;;;;;;7.42;70.80;99443.00;6193104;23;20008;-69
2021/01/01 00:33:52;;;;;;;89.53;38.28;;;;;;;7.45;70.93;99444.53;6194713;23;20005;-70
2021/01/01 00:36:19;;;;;;;89.20;40.28;;;;;;;7.45;71.41;99452.44;6194192;23;20001;-67
2021/01/01 00:38:51;;;;;;;82.25;37.75;;;;;;;7.41;71.07;99451.91;6193005;23;20007;-70
2021/01/01 00:41:24;;;;;;;111.80;44.75;;;;;;;7.36;70.83;99465.50;6195285;23;20004;-70
2021/01/01 00:43:50;;;;;;;85.22;40.17;;;;;;;7.26;71.50;99464.72;6194868;23;20031;-70
2021/01/01 00:46:16;;;;;;;96.43;43.10;;;;;;;7.10;72.01;99463.69;6196162;23;20044;-70
2021/01/01 00:48:41;;;;;;;88.88;41.13;;;;;;;7.06;72.14;99457.91;6196422;23;20001;-70
2021/01/01 00:51:07;;;;;;;116.68;46.38;;;;;;;7.10;72.08;99466.31;6196034;23;20040;-70
2021/01/01 00:53:32;;;;;;;105.10;45.53;;;;;;;7.32;71.21;99458.88;6196216;23;20001;-70
2021/01/01 00:55:58;;;;;;;114.40;47.25;;;;;;;7.43;71.75;99452.56;6196211;23;20008;-69
2021/01/01 00:58:23;;;;;;;103.10;46.67;;;;;;;7.32;71.50;99450.97;6196378;23;20005;-69
2021/01/01 01:00:48;;;;;;;86.38;40.85;;;;;;;7.28;71.43;99448.75;6196074;23;20020;-69
2021/01/01 01:03:14;;;;;;;88.63;43.33;;;;;;;6.88;72.93;99459.66;6196078;23;20029;-70
2021/01/01 01:05:39;;;;;;;92.93;41.58;;;;;;;6.90;72.22;99462.97;6195809;23;20179;-69
2021/01/01 01:08:05;;;;;;;88.53;39.80;;;;;;;7.01;71.94;99470.66;6195951;23;20063;-69
2021/01/01 01:10:30;;;;;;;98.28;38.22;;;;;;;7.13;71.21;99468.66;6195877;23;20004;-69
2021/01/01 01:12:56;;;;;;;78.88;35.65;;;;;;;7.18;71.29;99467.25;6196125;23;20028;-70
2021/01/01 01:15:21;;;;;;;79.43;32.65;;;;;;;7.34;71.00;99470.09;6195868;23;20008;-69
2021/01/01 01:17:46;;;;;;;92.78;34.88;;;;;;;7.34;71.28;99474.53;6196156;23;20047;-69
2021/01/01 01:20:12;;;;;;;88.70;36.03;;;;;;;7.38;71.74;99475.06;6196128;23;20279;-70
2021/01/01 01:22:38;;;;;;;83.80;33.92;;;;;;;7.53;70.67;99479.69;6196324;23;20186;-69
2021/01/01 01:25:04;;;;;;;75.95;32.78;;;;;;;7.41;71.11;99482.69;6195884;23;20001;-70
2021/01/01 01:27:29;;;;;;;84.35;33.55;;;;;;;7.39;71.81;99479.34;6196247;23;20017;-69
2021/01/01 01:29:55;;;;;;;82.45;34.53;;;;;;;7.56;70.73;99478.56;6195741;23;20005;-70
2021/01/01 01:32:20;;;;;;;78.80;33.85;;;;;;;7.50;70.07;99476.50;6195802;23;20005;-69
2021/01/01 01:34:46;;;;;;;78.63;32.88;;;;;;;7.53;69.79;99479.69;6196093;23;20008;-69
2021/01/01 01:37:11;;;;;;;91.10;35.92;;;;;;;7.45;70.51;99479.59;6194314;23;20001;-69
2021/01/01 01:39:37;;;;;;;81.65;35.58;;;;;;;7.41;70.60;99485.31;6195741;23;20011;-69
2021/01/01 01:42:03;;;;;;;78.55;33.83;;;;;;;7.44;69.48;99483.22;6195647;23;20004;-69
2021/01/01 01:44:28;;;;;;;73.35;34.72;;;;;;;7.18;66.77;99485.69;6195981;23;20024;-69
2021/01/01 01:46:54;;;;;;;80.57;32.97;;;;;;;6.80;68.04;99493.75;6195762;23;20011;-67
2021/01/01 01:49:20;;;;;;;83.30;33.28;;;;;;;6.19;70.65;99496.78;6195933;23;20001;-69
2021/01/01 01:51:47;;;;;;;65.90;29.50;;;;;;;5.60;74.34;99500.34;6195439;23;20031;-69
2021/01/01 01:54:15;;;;;;;62.90;27.80;;;;;;;5.13;75.34;99502.69;6195832;23;20008;-68
2021/01/01 01:56:42;;;;;;;43.73;18.07;;;;;;;4.86;78.17;99505.91;6195746;23;20351;-70
2021/01/01 01:59:09;;;;;;;37.33;16.70;;;;;;;4.56;78.70;99519.81;6194331;23;20009;-69
2021/01/01 02:01:34;;;;;;;41.77;19.10;;;;;;;4.49;78.65;99511.66;6195526;23;20009;-69
2021/01/01 02:04:00;;;;;;;38.77;17.00;;;;;;;4.44;78.93;99513.00;6195471;23;20052;-70
2021/01/01 02:06:25;;;;;;;38.77;17.47;;;;;;;4.48;77.70;99503.91;6195521;23;20040;-70
2021/01/01 02:08:51;;;;;;;37.93;16.67;;;;;;;4.61;77.68;99522.06;6195674;23;20310;-68
2021/01/01 02:11:17;;;;;;;41.03;17.33;;;;;;;4.55;77.55;99519.97;6195403;23;20001;-70
2021/01/01 02:13:47;;;;;;;42.07;18.23;;;;;;;4.30;77.51;99521.19;6195748;23;20016;-69
2021/01/01 02:16:15;;;;;;;40.30;19.33;;;;;;;4.03;81.21;99509.38;6195274;23;20005;-69
2021/01/01 02:18:42;;;;;;;38.03;19.27;;;;;;;4.21;81.22;99516.69;6195661;23;20064;-70
2021/01/01 02:21:09;;;;;;;41.67;19.53;;;;;;;4.15;80.54;99510.97;6195353;23;20056;-68
2021/01/01 02:23:35;;;;;;;46.40;20.53;;;;;;;4.26;82.19;99517.16;6195485;23;20087;-69
2021/01/01 02:26:01;;;;;;;47.87;20.23;;;;;;;4.36;81.39;99523.28;6195371;23;20202;-70
2021/01/01 02:28:26;;;;;;;48.20;23.07;;;;;;;4.51;81.20;99516.75;6195589;23;20016;-70
2021/01/01 02:30:52;;;;;;;44.33;20.13;;;;;;;4.80;80.03;99519.53;6193757;23;20332;-70
2021/01/01 02:33:17;;;;;;;50.07;22.03;;;;;;;4.88;80.14;99529.38;6195396;23;20009;-67
2021/01/01 02:35:43;;;;;;;54.97;24.23;;;;;;;4.93;81.24;99525.41;6195168;23;20215;-67
2021/01/01 02:38:08;;;;;;;57.13;25.57;;;;;;;5.01;82.30;99522.94;6195263;23;20009;-67
2021/01/01 02:40:34;;;;;;;62.17;25.50;;;;;;;5.43;80.47;99533.34;6194975;23;20204;-66
2021/01/01 02:42:59;;;;;;;59.33;26.33;;;;;;;5.37;79.82;99528.63;6195357;23;20013;-66
2021/01/01 02:45:25;;;;;;;50.37;24.73;;;;;;;5.34;79.21;99528.88;6195389;23;20054;-66
2021/01/01 02:47:50;;;;;;;48.97;22.73;;;;;;;5.17;79.42;99521.63;6193607;23;20341;-66
2021/01/01 02:50:17;;;;;;;48.60;23.50;;;;;;;5.32;78.97;99517.69;6194901;23;20294;-68
2021/01/01 02:52:43;;;;;;;52.47;24.73;;;;;;;5.68;77.39;99521.50;6195120;23;20012;-67
2021/01/01 02:55:10;;;;;;;47.95;22.77;;;;;;;5.87;75.69;99523.31;6195264;23;20116;-67
2021/01/01 02:57:35;;;;;;;50.67;23.70;;;;;;;5.81;75.00;99522.06;6195385;23;20282;-67
2021/01/01 03:00:01;;;;;;;48.28;21.45;;;;;;;5.74;76.40;99515.69;6195340;23;20049;-67
2021/01/01 03:02:27;;;;;;;50.28;21.58;;;;;;;5.85;75.46;99520.00;6194750;23;20194;-67
2021/01/01 03:04:52;;;;;;;57.23;25.60;;;;;;;5.90;75.76;99521.28;6194511;23;20008;-67
2021/01/01 03:07:18;;;;;;;62.67;26.53;;;;;;;6.12;74.96;99521.97;6194810;23;20398;-67
2021/01/01 03:09:43;;;;;;;87.78;34.53;;;;;;;6.18;74.55;99519.59;6194774;23;20007;-67
2021/01/01 03:12:08;;;;;;;73.68;31.50;;;;;;;6.34;72.66;99509.38;6194913;23;20055;-66
2021/01/01 03:14:34;;;;;;;76.55;30.98;;;;;;;6.39;71.51;99519.47;6194531;23;20009;-67
2021/01/01 03:16:59;;;;;;;62.20;26.55;;;;;;;6.07;70.80;99548.66;6194998;23;20000;-67
2021/01/01 03:19:25;;;;;;;57.30;26.02;;;;;;;5.83;73.51;99543.78;6194986;23;20005;-66
2021/01/01 03:21:50;;;;;;;47.70;22.83;;;;;;;5.94;72.63;99543.69;6195087;23;20012;-66
2021/01/01 03:24:16;;;;;;;45.50;23.08;;;;;;;5.85;71.19;99549.72;6195155;23;20004;-70
2021/01/01 03:26:41;;;;;;;48.60;22.93;;;;;;;5.46;72.61;99554.06;6194862;23;20043;-67
2021/01/01 03:29:06;;;;;;;43.97;19.27;;;;;;;5.33;73.11;99542.97;6193362;23;20017;-66
2021/01/01 03:31:32;;;;;;;43.55;20.77;;;;;;;5.41;73.32;99546.59;6195151;23;19997;-67
2021/01/01 03:33:57;;;;;;;43.23;19.37;;;;;;;5.41;74.83;99545.78;6195065;23;20044;-66
2021/01/01 03:36:23;;;;;;;37.03;18.60;;;;;;;5.50;75.31;99534.47;6195033;23;20025;-66
2021/01/01 03:38:48;;;;;;;38.00;18.10;;;;;;;5.63;75.37;99521.91;6193185;23;20267;-66
2021/01/01 03:41:14;;;;;;;39.23;18.43;;;;;;;5.69;75.51;99531.88;6194528;23;20000;-67
2021/01/01 03:43:39;;;;;;;32.92;16.45;;;;;;;5.78;75.86;99533.66;6193326;23;20021;-67
2021/01/01 03:46:05;;;;;;;33.30;15.93;;;;;;;5.84;75.35;99531.47;6194615;23;19997;-67
2021/01/01 03:48:30;;;;;;;27.77;14.77;;;;;;;5.86;75.83;99527.72;6194372;23;20005;-70
2021/01/01 03:50:56;;;;;;;27.60;13.95;;;;;;;5.96;75.31;99525.97;6194474;23;19997;-70
2021/01/01 03:53:21;;;;;;;34.45;13.73;;;;;;;6.14;74.27;99520.03;6194722;23;20248;-70
2021/01/01 03:55:47;;;;;;;27.08;13.35;;;;;;;6.18;74.64;99527.50;6193127;23;20028;-70
2021/01/01 03:58:12;;;;;;;26.25;12.65;;;;;;;6.13;74.21;99534.13;6194799;23;20064;-69
2021/01/01 04:00:37;;;;;;;28.17;14.00;;;;;;;6.26;74.07;99530.28;6193092;23;20044;-69
2021/01/01 04:03:03;;;;;;;28.15;13.95;;;;;;;6.28;74.20;99541.50;6194661;23;20005;-70
2021/01/01 04:05:28;;;;;;;28.27;13.10;;;;;;;6.21;74.57;99539.53;6194223;23;20009;-69
2021/01/01 04:07:54;;;;;;;32.30;14.02;;;;;;;6.42;73.32;99547.28;6194556;23;20005;-68
2021/01/01 04:10:19;;;;;;;30.65;14.00;;;;;;;6.21;73.96;99556.13;6194426;23;20025;-69
2021/01/01 04:12:45;;;;;;;32.78;15.80;;;;;;;6.13;73.85;99569.13;6194582;23;20025;-69
2021/01/01 04:15:11;;;;;;;33.17;15.38;;;;;;;6.16;73.19;99571.50;6195201;23;19997;-70
2021/01/01 04:17:36;;;;;;;33.63;14.63;;;;;;;6.14;72.70;99567.34;6194934;23;20008;-69
2021/01/01 04:20:03;;;;;;;28.27;14.18;;;;;;;5.90;73.68;99568.56;6196550;23;20004;-69
2021/01/01 04:22:28;;;;;;;32.92;14.88;;;;;;;5.93;73.35;99572.72;6194864;23;20009;-69
2021/01/01 04:24:54;;;;;;;31.40;15.18;;;;;;;6.16;73.15;99570.66;6196445;23;20261;-69
2021/01/01 04:27:19;;;;;;;31.10;14.13;;;;;;;6.29;71.86;99573.88;6196391;23;19997;-69
2021/01/01 04:29:45;;;;;;;23.85;13.45;;;;;;;6.03;70.92;99582.28;6195021;23;20289;-69
2021/01/01 04:32:10;;;;;;;28.27;13.07;;;;;;;5.71;72.52;99589.53;6196480;23;20059;-68
2021/01/01 04:34:35;;;;;;;29.17;14.70;;;;;;;5.88;72.01;99591.50;6196854;23;20005;-68
2021/01/01 04:37:01;;;;;;;32.20;15.95;;;;;;;5.68;72.76;99587.16;6196443;23;19997;-68
2021/01/01 04:39:26;;;;;;;28.87;13.67;;;;;;;5.67;72.97;99582.88;6196591;23;20028;-68
2021/01/01 04:41:55;;;;;;;36.87;16.97;;;;;;;5.53;74.50;99580.63;6196281;23;20202;-69
2021/01/01 04:44:25;;;;;;;60.08;26.67;;;;;;;5.83;72.83;99584.97;6194842;23;20016;-69
2021/01/01 04:46:51;;;;;;;62.70;26.63;;;;;;;5.96;71.72;99577.72;6196294;23;20302;-70
2021/01/01 04:49:17;;;;;;;62.78;25.10;;;;;;;5.89;71.75;99581.81;6196473;23;20291;-69
2021/01/01 04:51:43;;;;;;;58.85;28.08;;;;;;;5.90;70.63;99594.84;6196256;23;20005;-68
2021/01/01 04:54:11;;;;;;;29.15;14.93;;;;;;;5.47;70.12;99600.38;6196362;23;20175;-68
2021/01/01 04:56:49;;;;;;;27.80;13.33;;;;;;;4.87;72.75;99596.75;6196259;23;20011;-69
2021/01/01 04:59:16;;;;;;;33.47;14.13;;;;;;;4.77;73.90;99606.38;6194752;23;20011;-68
2021/01/01 05:01:45;;;;;;;35.10;15.53;;;;;;;4.87;74.41;99601.16;6196132;23;20009;-69
2021/01/01 05:04:11;;;;;;;40.40;17.37;;;;;;;5.01;74.35;99611.34;6194436;23;20283;-69
2021/01/01 05:06:39;;;;;;;35.10;15.70;;;;;;;5.17;73.96;99608.25;6196103;23;20001;-69
2021/01/01 05:09:05;;;;;;;33.97;16.03;;;;;;;5.27;72.94;99614.41;6196243;23;20191;-69
2021/01/01 05:11:30;;;;;;;35.47;15.90;;;;;;;5.47;72.36;99604.78;6195999;23;20013;-68
2021/01/01 05:14:01;;;;;;;41.67;17.57;;;;;;;5.31;71.90;99634.16;6196287;23;20295;-69
2021/01/01 05:16:26;;;;;;;36.58;18.10;;;;;;;5.21;72.66;99635.91;6195911;23;20008;-69
2021/01/01 05:18:53;;;;;;;42.67;18.87;;;;;;;5.29;72.18;99631.69;6195818;23;20013;-68
2021/01/01 05:21:27;;;;;;;34.10;15.33;;;;;;;5.24;72.18;99639.13;6196008;23;20005;-69
2021/01/01 05:23:54;;;;;;;35.70;16.27;;;;;;;5.10;72.15;99657.78;6196289;23;20238;-68
2021/01/01 05:26:25;;;;;;;26.37;14.60;;;;;;;4.92;70.92;99673.28;6195859;23;20001;-69
2021/01/01 05:28:52;;;;;;;32.40;14.13;;;;;;;4.78;71.54;99658.69;6195880;23;20068;-69
2021/01/01 05:31:26;;;;;;;36.73;16.93;;;;;;;5.07;72.43;99672.00;6195831;23;20001;-66
2021/01/01 05:33:59;;;;;;;35.13;16.83;;;;;;;5.24;72.14;99668.00;6196122;23;20016;-69
2021/01/01 05:36:54;;;;;;;34.33;16.42;;;;;;;5.08;73.00;99665.78;6196189;23;20023;-68
2021/01/01 05:39:19;;;;;;;34.65;16.13;;;;;;;5.02;73.70;99663.69;6169950;23;20011;-69
2021/01/01 05:41:49;;;;;;;34.47;16.75;;;;;;;5.14;73.17;99672.31;6195653;23;20031;-69
2021/01/01 05:44:25;;;;;;;32.45;16.70;;;;;;;5.24;72.34;99670.63;6196052;23;20056;-68
2021/01/01 05:47:05;;;;;;;33.45;16.08;;;;;;;5.28;71.43;99673.81;6196160;23;19997;-69
2021/01/01 05:49:36;;;;;;;33.27;15.37;;;;;;;5.22;71.16;99675.16;6195977;23;20017;-68
2021/01/01 05:52:11;;;;;;;49.17;22.35;;;;;;;5.23;71.89;99673.38;6196325;23;20008;-68
2021/01/01 05:54:42;;;;;;;43.03;19.27;;;;;;;5.07;72.84;99674.63;6196123;23;20195;-69
2021/01/01 05:57:09;;;;;;;44.57;20.13;;;;;;;4.91;73.85;99683.91;6195738;23;20071;-69
2021/01/01 05:59:36;;;;;;;46.53;21.05;;;;;;;5.20;71.99;99674.47;6196005;23;20009;-69
2021/01/01 06:02:03;;;;;;;46.03;21.75;;;;;;;5.00;72.92;99680.53;6195551;23;20294;-68
2021/01/01 06:04:29;;;;;;;85.47;38.47;;;;;;;5.14;72.52;99680.19;6193852;23;20317;-69
2021/01/01 06:06:55;;;;;;;69.68;32.47;;;;;;;5.21;72.76;99683.16;6195573;23;20044;-69
2021/01/01 06:09:21;;;;;;;43.80;19.60;;;;;;;5.42;71.57;99682.19;6194017;23;20295;-69
2021/01/01 06:12:04;;;;;;;37.50;18.63;;;;;;;5.60;70.86;99690.28;6195406;23;19997;-69
2021/01/01 06:14:32;;;;;;;48.37;21.73;;;;;;;5.34;72.14;99694.28;6194287;23;20016;-69
2021/01/01 06:17:10;;;;;;;39.45;16.58;;;;;;;5.10;73.75;99691.91;6195447;23;20012;-68
2021/01/01 06:19:58;;;;;;;31.10;15.57;;;;;;;5.15;73.87;99700.22;6195755;23;20005;-68
2021/01/01 06:22:29;;;;;;;35.70;16.73;;;;;;;5.25;74.26;99705.56;6195278;23;20000;-70
2021/01/01 06:24:56;;;;;;;34.80;15.73;;;;;;;5.59;73.93;99703.53;6195347;23;20000;-69
2021/01/01 06:27:30;;;;;;;37.30;18.15;;;;;;;5.56;73.56;99715.13;6195288;23;20317;-68
2021/01/01 06:29:58;;;;;;;36.65;18.98;;;;;;;5.79;72.93;99721.06;6195301;23;20226;-69
2021/01/01 06:32:25;;;;;;;43.45;20.63;;;;;;;5.96;73.07;99723.09;6195223;23;20004;-68
2021/01/01 06:34:52;;;;;;;38.05;19.25;;;;;;;5.78;73.22;99728.09;6195252;23;20001;-69
2021/01/01 06:37:35;;;;;;;41.33;18.25;;;;;;;5.98;72.92;99736.09;6195003;23;20004;-69
2021/01/01 06:40:01;;;;;;;39.70;20.58;;;;;;;5.99;73.10;99748.28;6194717;23;19997;-68
2021/01/01 06:42:50;;;;;;;41.05;20.15;;;;;;;6.18;72.84;99744.88;6195028;23;20051;-69
2021/01/01 06:45:40;;;;;;;37.45;20.10;;;;;;;6.28;71.87;99743.13;6178160;23;20001;-69
2021/01/01 06:48:21;;;;;;;39.55;19.50;;;;;;;6.36;72.18;99732.78;6195231;23;20009;-69
2021/01/01 06:50:50;;;;;;;45.53;24.13;;;;;;;6.43;72.16;99739.16;6195043;23;20068;-69
2021/01/01 06:53:17;;;;;;;51.15;25.52;;;;;;;6.46;72.32;99738.88;6193647;23;20047;-69
2021/01/01 06:55:45;;;;;;;43.55;22.98;;;;;;;6.47;72.10;99735.28;6193543;23;19997;-69
2021/01/01 06:58:12;;;;;;;47.80;23.60;;;;;;;6.61;71.87;99741.94;6195233;23;20005;-69
2021/01/01 07:00:49;;;;;;;44.22;21.73;;;;;;;6.68;70.71;99750.94;6194913;23;20024;-69
2021/01/01 07:03:28;;;;;;;43.38;21.42;;;;;;;6.36;71.78;99759.06;6195281;23;20194;-69
2021/01/01 07:05:57;;;;;;;53.28;24.25;;;;;;;6.56;71.52;99757.31;6194656;23;20207;-69
2021/01/01 07:11:08;;;;;;;47.22;22.75;;;;;;;6.70;71.55;99768.28;6195320;23;20028;-69
2021/01/01 07:13:40;;;;;;;50.78;24.33;;;;;;;6.62;72.74;99770.75;6195038;23;20040;-69
2021/01/01 07:16:06;;;;;;;48.63;23.90;;;;;;;6.95;71.90;99769.53;6194780;23;20005;-68
2021/01/01 07:18:32;;;;;;;50.08;24.42;;;;;;;7.11;71.92;99776.88;6195000;23;20005;-69
2021/01/01 07:21:01;;;;;;;53.38;25.50;;;;;;;7.38;70.32;99778.81;6195127;23;20021;-70
2021/01/01 07:23:28;;;;;;;58.22;27.73;;;;;;;7.35;70.50;99777.31;6194980;23;20302;-69
2021/01/01 07:25:54;;;;;;;63.83;27.55;;;;;;;7.67;69.79;99776.13;6194696;23;20039;-70
2021/01/01 07:28:22;;;;;;;54.40;28.08;;;;;;;8.20;68.07;99778.16;6194957;23;20011;-70
2021/01/01 07:30:48;;;;;;;64.43;36.92;;;;;;;8.41;66.68;99767.41;6194722;23;19997;-70
2021/01/01 07:33:20;;;;;;;76.05;42.08;;;;;;;8.68;64.94;99783.22;6194946;23;20346;-68
2021/01/01 07:35:52;;;;;;;76.75;42.75;;;;;;;8.70;64.54;99783.09;6194545;23;19997;-69
2021/01/01 07:38:18;;;;;;;63.75;33.83;;;;;;;8.86;63.81;99786.72;6194827;23;20013;-69
2021/01/01 07:40:48;;;;;;;38.03;19.55;;;;;;;9.04;62.49;99783.25;6194511;23;20036;-69
2021/01/01 07:43:13;;;;;;;30.13;16.55;;;;;;;8.85;63.08;99790.34;6194817;23;20005;-70
2021/01/01 07:45:39;;;;;;;32.97;14.77;;;;;;;8.59;63.61;99790.22;6194529;23;20004;-69
2021/01/01 07:48:05;;;;;;;25.90;13.45;;;;;;;8.69;63.20;99798.09;6194696;23;20283;-69
2021/01/01 07:50:32;;;;;;;26.55;12.07;;;;;;;8.51;64.68;99805.13;6194398;23;20005;-69
2021/01/01 07:53:02;;;;;;;23.48;10.93;;;;;;;8.57;64.54;99804.56;6194498;23;20012;-69
2021/01/01 07:55:27;;;;;;;21.02;10.38;;;;;;;8.87;63.49;99792.81;6194521;23;19997;-69
2021/01/01 07:57:59;;;;;;;19.90;9.35;;;;;;;8.86;63.67;99793.81;6194762;23;20013;-70
2021/01/01 08:00:29;;;;;;;19.33;8.52;;;;;;;9.06;62.48;99797.97;6195215;23;20051;-70
2021/01/01 08:02:54;;;;;;;18.48;8.70;;;;;;;9.05;63.32;99798.94;6194987;23;20016;-69
2021/01/01 08:05:20;;;;;;;18.40;8.60;;;;;;;9.21;63.15;99795.63;6194777;23;20024;-70
2021/01/01 08:07:45;;;;;;;18.35;8.02;;;;;;;9.32;61.84;99797.19;6193063;23;20017;-69
2021/01/01 08:10:11;;;;;;;18.35;9.02;;;;;;;9.40;62.75;99794.66;6194392;23;20001;-69
2021/01/01 08:12:37;;;;;;;13.75;7.60;;;;;;;9.45;62.32;99798.50;6195113;23;20025;-68
2021/01/01 08:15:04;;;;;;;14.52;7.25;;;;;;;9.34;62.83;99804.00;6194400;23;20386;-69
2021/01/01 08:17:29;;;;;;;10.85;6.05;;;;;;;9.53;61.38;99803.84;6194382;23;20194;-69
2021/01/01 08:19:59;;;;;;;12.98;6.20;;;;;;;9.43;61.93;99811.03;6192862;23;20009;-69
2021/01/01 08:22:35;;;;;;;17.35;8.60;;;;;;;9.23;63.36;99812.16;6194278;23;20058;-69
2021/01/01 08:25:01;;;;;;;15.98;6.50;;;;;;;9.35;62.63;99813.56;6194390;23;20004;-69
2021/01/01 08:27:28;;;;;;;12.95;6.55;;;;;;;9.54;62.99;99821.34;6194448;23;20224;-70
2021/01/01 08:29:55;;;;;;;11.57;6.70;;;;;;;9.69;62.81;99813.69;6192946;23;19997;-70
2021/01/01 08:32:21;;;;;;;11.18;6.07;;;;;;;9.99;61.08;99811.56;6194348;23;20186;-69
2021/01/01 08:34:51;;;;;;;15.27;6.63;;;;;;;9.97;61.73;99811.72;6194279;23;20005;-69
2021/01/01 08:37:21;;;;;;;10.15;5.82;;;;;;;10.01;61.30;99814.91;6195059;23;20001;-69
2021/01/01 08:39:47;;;;;;;11.50;5.47;;;;;;;9.89;62.00;99823.09;6194572;23;20180;-70
2021/01/01 08:42:23;;;;;;;12.77;6.70;;;;;;;10.06;61.41;99813.44;6194239;23;20040;-70
2021/01/01 08:44:48;;;;;;;13.02;6.85;;;;;;;10.23;61.01;99822.31;6192893;23;20262;-69
2021/01/01 08:47:14;;;;;;;10.60;6.20;;;;;;;10.36;60.69;99820.06;6194396;23;20025;-69
2021/01/01 08:49:40;;;;;;;14.65;6.65;;;;;;;10.44;60.31;99821.94;6194609;23;20016;-69
2021/01/01 08:52:12;;;;;;;12.65;6.63;;;;;;;10.67;60.27;99819.56;6194457;23;20044;-69
2021/01/01 08:54:38;;;;;;;14.23;7.35;;;;;;;10.71;59.90;99818.25;6194821;23;20195;-68
2021/01/01 08:57:04;;;;;;;15.23;6.82;;;;;;;10.57;60.02;99822.34;6194369;23;20005;-69
2021/01/01 08:59:30;;;;;;;12.50;6.03;;;;;;;10.71;59.67;99823.53;6194670;23;20233;-70
2021/01/01 09:01:57;;;;;;;14.82;6.28;;;;;;;10.96;59.48;99819.13;6194789;23;20009;-69
2021/01/01 09:04:29;;;;;;;11.57;5.90;;;;;;;10.97;59.02;99816.31;6195672;23;20009;-70
2021/01/01 09:07:00;;;;;;;12.70;6.20;;;;;;;10.98;60.08;99812.69;6194744;23;20101;-69
2021/01/01 09:09:32;;;;;;;9.90;4.93;;;;;;;11.03;58.94;99820.13;6196434;23;20067;-68
2021/01/01 09:12:20;;;;;;;11.82;5.22;;;;;;;11.02;59.43;99821.13;6196262;23;20029;-70
2021/01/01 09:14:46;;;;;;;9.50;5.05;;;;;;;11.20;58.44;99816.50;6195926;23;20077;-66
2021/01/01 09:17:12;;;;;;;7.70;4.30;;;;;;;11.10;58.79;99816.66;6196047;23;20303;-67
2021/01/01 09:19:37;;;;;;;8.15;4.53;;;;;;;11.20;58.40;99821.81;6196184;23;20013;-67
2021/01/01 09:22:17;;;;;;;10.55;4.95;;;;;;;11.28;58.41;99819.16;6195983;23;20005;-66
2021/01/01 09:24:44;;;;;;;11.10;4.78;;;;;;;11.38;57.49;99826.97;6196088;23;20092;-66
2021/01/01 09:27:09;;;;;;;8.52;4.07;;;;;;;11.35;57.49;99816.69;6196040;23;20198;-66
2021/01/01 09:29:35;;;;;;;7.05;4.00;;;;;;;11.33;57.11;99824.81;6194511;23;20009;-69
2021/01/01 09:32:04;;;;;;;7.00;3.28;;;;;;;11.43;56.79;99819.34;6196032;23;20001;-69
2021/01/01 09:34:29;;;;;;;10.43;4.07;;;;;;;11.49;57.47;99821.38;6196223;23;20009;-70
2021/01/01 09:36:55;;;;;;;10.20;3.67;;;;;;;11.62;57.03;99823.50;6195829;23;20052;-68
2021/01/01 09:39:20;;;;;;;5.95;3.08;;;;;;;11.59;55.36;99822.03;6195959;23;20191;-68
2021/01/01 09:41:48;;;;;;;8.27;3.28;;;;;;;11.56;55.06;99816.22;6195691;23;20028;-68
2021/01/01 09:44:13;;;;;;;6.15;2.97;;;;;;;11.63;54.60;99819.88;6196052;23;20009;-70
2021/01/01 09:46:43;;;;;;;6.82;3.75;;;;;;;11.51;55.00;99816.72;6195829;23;20359;-68
2021/01/01 09:49:09;;;;;;;5.95;3.28;;;;;;;11.66;54.90;99814.22;6195849;23;20020;-69
2021/01/01 09:51:35;;;;;;;4.15;3.00;;;;;;;11.58;54.60;99817.72;6195841;23;20028;-69
2021/01/01 09:54:01;;;;;;;6.45;2.72;;;;;;;11.70;52.57;99807.59;6195975;23;20156;-69
2021/01/01 09:56:36;;;;;;;7.82;2.50;;;;;;;11.61;52.70;99819.19;6195780;23;20044;-69
2021/01/01 09:59:02;;;;;;;9.40;2.92;;;;;;;11.69;52.63;99816.53;6195908;23;20168;-68
2021/01/01 10:01:31;;;;;;;6.32;2.38;;;;;;;11.71;52.32;99798.63;6195543;23;20299;-68
2021/01/01 10:03:57;;;;;;;7.07;3.05;;;;;;;11.83;52.09;99815.91;6195611;23;20013;-68
2021/01/01 10:06:23;;;;;;;5.70;3.20;;;;;;;11.73;53.39;99815.22;6195514;23;20001;-69
2021/01/01 10:08:49;;;;;;;6.07;3.05;;;;;;;11.64;53.11;99814.41;6195788;23;20242;-68
2021/01/01 10:11:15;;;;;;;8.00;3.20;;;;;;;12.06;51.26;99808.88;6193962;23;20025;-68
2021/01/01 10:13:41;;;;;;;5.88;2.72;;;;;;;11.90;51.68;99805.44;6195727;23;20036;-68
2021/01/01 10:16:11;;;;;;;8.48;3.67;;;;;;;11.78;52.27;99805.78;6195820;23;20191;-69
2021/01/01 10:18:38;;;;;;;6.88;3.08;;;;;;;12.04;51.70;99805.56;6195672;23;20013;-70
2021/01/01 10:21:04;;;;;;;6.07;2.75;;;;;;;11.96;52.63;99800.28;6193805;23;20034;-68
2021/01/01 10:23:30;;;;;;;5.97;3.25;;;;;;;11.94;52.31;99802.28;6195527;23;20048;-68
2021/01/01 10:25:55;;;;;;;8.98;2.70;;;;;;;12.00;52.24;99795.47;6195417;23;20206;-69
2021/01/01 10:28:20;;;;;;;5.45;2.30;;;;;;;12.09;50.81;99787.31;6194018;23;20068;-68
2021/01/01 10:30:46;;;;;;;4.95;2.55;;;;;;;12.03;50.66;99793.28;6195600;23;20024;-69
2021/01/01 10:33:13;;;;;;;3.70;2.03;;;;;;;12.07;50.48;99794.63;6195383;23;20009;-69
2021/01/01 10:35:39;;;;;;;4.35;1.92;;;;;;;12.03;50.07;99788.00;6193678;23;20317;-69
2021/01/01 10:38:05;;;;;;;6.78;2.42;;;;;;;12.08;51.06;99785.66;6193693;23;20068;-69
2021/01/01 10:40:30;;;;;;;6.63;2.05;;;;;;;12.20;50.24;99783.44;6195177;23;20310;-69
2021/01/01 10:42:59;;;;;;;4.38;1.98;;;;;;;12.06;50.37;99779.69;6195338;23;20207;-69
2021/01/01 10:45:25;;;;;;;5.15;2.10;;;;;;;12.05;50.89;99774.53;6193585;23;20007;-69
2021/01/01 10:47:50;;;;;;;3.20;1.70;;;;;;;12.12;49.09;99778.16;6195166;23;20009;-68
2021/01/01 10:50:16;;;;;;;4.97;2.35;;;;;;;12.15;49.75;99775.19;6195123;23;20217;-69
2021/01/01 10:52:41;;;;;;;5.35;2.63;;;;;;;11.98;50.33;99750.53;6195598;23;20009;-68
2021/01/01 10:55:07;;;;;;;3.67;1.73;;;;;;;12.17;50.04;99773.19;6195067;23;20025;-69
2021/01/01 10:57:32;;;;;;;3.42;1.63;;;;;;;12.20;48.50;99772.00;6195244;23;20239;-68
2021/01/01 10:59:58;;;;;;;4.75;1.95;;;;;;;12.23;49.04;99771.66;6194939;23;20008;-69
2021/01/01 11:02:24;;;;;;;3.75;1.73;;;;;;;12.08;49.18;99772.38;6194831;23;20313;-69
2021/01/01 11:04:49;;;;;;;2.90;1.70;;;;;;;12.15;49.20;99773.34;6194719;23;20005;-68
2021/01/01 11:07:15;;;;;;;5.22;2.63;;;;;;;12.11;49.62;99764.06;6194972;23;20005;-68
2021/01/01 11:09:40;;;;;;;6.43;2.45;;;;;;;12.20;49.17;99772.00;6195322;23;20340;-69
2021/01/01 11:12:07;;;;;;;5.78;2.17;;;;;;;12.07;49.28;99772.56;6194978;23;20043;-69
2021/01/01 12:22:44;;;;;;;1.58;1.25;;;;;;;12.14;42.70;99773.53;6194713;23;20005;-69
2021/01/01 12:25:11;;;;;;;3.65;1.50;;;;;;;12.18;43.25;99788.09;6194468;23;20032;-69
2021/01/01 12:27:37;;;;;;;3.67;1.67;;;;;;;12.21;43.49;99790.41;6194537;23;21162;-69
2021/01/01 12:30:07;;;;;;;2.00;1.10;;;;;;;12.20;43.42;99799.38;6193061;23;20001;-69
2021/01/01 12:32:33;;;;;;;4.63;1.17;;;;;;;12.11;43.91;99798.56;6193041;23;20001;-69
2021/01/01 12:35:00;;;;;;;3.67;1.10;;;;;;;12.14;43.72;99797.41;6194339;23;20156;-69
2021/01/01 12:37:26;;;;;;;2.00;1.20;;;;;;;12.11;44.06;99798.56;6193948;23;20001;-69
2021/01/01 12:39:51;;;;;;;1.85;1.10;;;;;;;12.07;42.25;99804.41;6196264;23;20056;-69